createdAt,value
2018-12-29T00:00:50.683Z,31.20
2018-12-29T00:01:50.591Z,31.40
2018-12-29T00:02:50.515Z,31.40
2018-12-29T00:03:50.449Z,30.60
2018-12-29T00:04:50.398Z,32.10
2018-12-29T00:05:50.366Z,31.70
2018-12-29T00:06:50.285Z,32.00
2018-12-29T00:07:50.235Z,32.40
2018-12-29T00:08:50.179Z,31.60
2018-12-29T00:09:50.120Z,31.90
2018-12-29T00:10:50.090Z,31.60
2018-12-29T00:11:50.009Z,32.10
2018-12-29T00:12:49.956Z,31.10
2018-12-29T00:13:49.889Z,31.40
2018-12-29T00:14:54.907Z,32.00
2018-12-29T00:15:49.830Z,32.10
2018-12-29T00:16:49.743Z,31.90
2018-12-29T00:17:49.665Z,30.80
2018-12-29T00:18:49.611Z,30.90
2018-12-29T00:19:49.593Z,31.50
2018-12-29T00:20:49.525Z,31.70
2018-12-29T00:21:49.455Z,32.10
2018-12-29T00:22:49.407Z,31.10
2018-12-29T00:23:49.325Z,33.20
2018-12-29T00:24:49.271Z,31.60
2018-12-29T00:25:49.240Z,33.00
2018-12-29T00:26:49.194Z,32.40
2018-12-29T00:27:49.135Z,31.40
2018-12-29T00:28:49.046Z,31.50
2018-12-29T00:29:49.038Z,31.90
2018-12-29T00:30:48.940Z,31.50
2018-12-29T00:31:48.909Z,32.50
2018-12-29T00:32:48.834Z,32.90
2018-12-29T00:33:48.769Z,31.90
2018-12-29T00:34:48.728Z,32.60
2018-12-29T00:35:48.673Z,32.20
2018-12-29T00:36:48.651Z,30.80
2018-12-29T00:37:48.541Z,30.40
2018-12-29T00:38:48.488Z,30.60
2018-12-29T00:39:48.479Z,32.20
2018-12-29T00:40:48.389Z,31.00
2018-12-29T00:41:48.366Z,32.70
2018-12-29T00:42:48.274Z,31.90
2018-12-29T00:43:48.203Z,32.10
2018-12-29T00:44:48.148Z,32.10
2018-12-29T00:45:48.097Z,32.70
2018-12-29T00:46:48.056Z,31.30
2018-12-29T00:47:47.984Z,32.20
2018-12-29T00:48:47.919Z,31.00
2018-12-29T00:49:47.909Z,31.50
2018-12-29T00:50:47.825Z,31.40
2018-12-29T00:51:47.786Z,31.50
2018-12-29T00:52:47.695Z,32.40
2018-12-29T00:53:47.632Z,33.00
2018-12-29T00:54:47.588Z,33.10
2018-12-29T00:55:47.531Z,33.30
2018-12-29T00:56:47.511Z,32.60
2018-12-29T00:57:47.421Z,32.40
2018-12-29T00:58:47.348Z,31.70
2018-12-29T00:59:47.304Z,31.50
2018-12-29T01:00:47.263Z,31.50
2018-12-29T01:01:47.214Z,31.00
2018-12-29T01:02:47.150Z,31.20
2018-12-29T01:03:47.070Z,31.40
2018-12-29T01:04:47.017Z,32.50
2018-12-29T01:05:46.999Z,32.30
2018-12-29T01:06:46.936Z,32.10
2018-12-29T01:07:46.863Z,32.50
2018-12-29T01:08:46.800Z,30.80
2018-12-29T01:09:46.745Z,31.50
2018-12-29T01:10:46.684Z,32.10
2018-12-29T01:11:46.663Z,31.50
2018-12-29T01:12:46.565Z,33.00
2018-12-29T01:13:46.601Z,32.80
2018-12-29T01:14:46.461Z,32.50
2018-12-29T01:15:46.413Z,32.20
2018-12-29T01:16:46.389Z,32.60
2018-12-29T01:17:46.296Z,33.00
2018-12-29T01:18:46.239Z,32.20
2018-12-29T01:19:46.175Z,32.20
2018-12-29T01:20:46.116Z,32.60
2018-12-29T01:21:46.083Z,32.60
2018-12-29T01:22:46.011Z,33.30
2018-12-29T01:23:45.948Z,31.90
2018-12-29T01:24:45.897Z,32.30
2018-12-29T01:25:45.844Z,33.10
2018-12-29T01:26:45.842Z,31.90
2018-12-29T01:27:45.736Z,31.50
2018-12-29T01:28:45.692Z,32.70
2018-12-29T01:29:45.655Z,32.40
2018-12-29T01:30:45.564Z,32.70
2018-12-29T01:31:45.549Z,34.00
2018-12-29T01:32:45.442Z,32.60
2018-12-29T01:33:45.376Z,32.20
2018-12-29T01:34:45.339Z,32.80
2018-12-29T01:35:45.292Z,32.00
2018-12-29T01:36:45.307Z,32.30
2018-12-29T01:37:45.160Z,32.40
2018-12-29T01:38:45.133Z,32.80
2018-12-29T01:39:45.051Z,31.60
2018-12-29T01:40:44.986Z,31.00
2018-12-29T01:41:44.942Z,30.90
2018-12-29T01:42:44.918Z,30.90
2018-12-29T01:43:44.828Z,30.50
2018-12-29T01:44:44.764Z,32.00
2018-12-29T01:45:44.713Z,31.50
2018-12-29T01:46:44.670Z,33.10
2018-12-29T01:47:44.659Z,33.10
2018-12-29T01:48:44.547Z,31.80
2018-12-29T01:49:44.503Z,31.30
2018-12-29T01:50:44.437Z,30.40
2018-12-29T01:51:44.392Z,30.50
2018-12-29T01:52:44.336Z,31.30
2018-12-29T01:53:44.292Z,30.80
2018-12-29T01:54:44.198Z,30.90
2018-12-29T01:55:44.148Z,32.30
2018-12-29T01:56:44.092Z,32.20
2018-12-29T01:57:44.083Z,31.90
2018-12-29T01:58:43.977Z,31.80
2018-12-29T01:59:43.921Z,30.60
2018-12-29T02:00:43.881Z,31.20
2018-12-29T02:01:43.810Z,31.00
2018-12-29T02:02:43.789Z,31.40
2018-12-29T02:03:43.702Z,32.60
2018-12-29T02:04:43.646Z,32.30
2018-12-29T02:05:43.603Z,32.20
2018-12-29T02:06:43.539Z,31.60
2018-12-29T02:07:43.514Z,32.90
2018-12-29T02:08:43.429Z,32.20
2018-12-29T02:09:43.374Z,32.70
2018-12-29T02:10:43.317Z,32.80
2018-12-29T02:11:43.255Z,31.20
2018-12-29T02:12:43.256Z,31.50
2018-12-29T02:13:43.141Z,32.90
2018-12-29T02:14:43.097Z,32.40
2018-12-29T02:15:43.020Z,32.40
2018-12-29T02:16:42.971Z,31.70
2018-12-29T02:17:42.943Z,33.60
2018-12-29T02:18:42.850Z,32.30
2018-12-29T02:19:42.820Z,30.50
2018-12-29T02:20:42.761Z,31.20
2018-12-29T02:21:42.706Z,31.30
2018-12-29T02:22:42.659Z,32.00
2018-12-29T02:23:42.574Z,32.20
2018-12-29T02:24:42.538Z,32.10
2018-12-29T02:25:42.459Z,33.10
2018-12-29T02:26:42.417Z,32.80
2018-12-29T02:27:42.380Z,33.00
2018-12-29T02:28:42.295Z,31.30
2018-12-29T02:29:42.247Z,31.80
2018-12-29T02:30:42.213Z,31.70
2018-12-29T02:31:42.133Z,32.30
2018-12-29T02:32:42.101Z,31.60
2018-12-29T02:33:42.039Z,32.20
2018-12-29T02:34:41.957Z,32.20
2018-12-29T02:35:41.920Z,31.40
2018-12-29T02:36:41.850Z,30.90
2018-12-29T02:37:41.843Z,31.90
2018-12-29T02:38:41.732Z,31.20
2018-12-29T02:39:41.686Z,31.30
2018-12-29T02:40:41.627Z,31.80
2018-12-29T02:41:41.590Z,31.90
2018-12-29T02:42:41.541Z,32.40
2018-12-29T02:43:41.459Z,30.90
2018-12-29T02:44:41.416Z,31.40
2018-12-29T02:45:41.347Z,31.60
2018-12-29T02:46:41.307Z,31.50
2018-12-29T02:47:41.248Z,32.00
2018-12-29T02:48:41.171Z,31.20
2018-12-29T02:49:41.123Z,32.00
2018-12-29T02:50:41.063Z,31.80
2018-12-29T02:51:41.014Z,32.30
2018-12-29T02:52:40.980Z,32.70
2018-12-29T02:53:40.902Z,32.40
2018-12-29T02:54:40.840Z,32.40
2018-12-29T02:55:40.778Z,31.90
2018-12-29T02:56:40.737Z,32.20
2018-12-29T02:57:40.710Z,32.50
2018-12-29T02:58:40.632Z,33.20
2018-12-29T02:59:40.573Z,31.70
2018-12-29T03:00:40.499Z,32.80
2018-12-29T03:01:40.460Z,32.80
2018-12-29T03:02:40.432Z,32.30
2018-12-29T03:03:40.373Z,31.90
2018-12-29T03:04:40.284Z,32.30
2018-12-29T03:05:40.245Z,31.20
2018-12-29T03:06:40.157Z,32.20
2018-12-29T03:07:40.170Z,31.60
2018-12-29T03:08:40.054Z,32.20
2018-12-29T03:09:40.007Z,31.80
2018-12-29T03:10:39.959Z,32.10
2018-12-29T03:11:39.889Z,32.20
2018-12-29T03:12:39.861Z,32.70
2018-12-29T03:13:39.774Z,31.20
2018-12-29T03:14:39.722Z,32.70
2018-12-29T03:15:41.661Z,32.20
2018-12-29T03:16:39.608Z,32.60
2018-12-29T03:17:39.595Z,33.00
2018-12-29T03:18:39.497Z,32.30
2018-12-29T03:19:39.431Z,32.40
2018-12-29T03:20:39.424Z,32.00
2018-12-29T03:21:39.338Z,31.90
2018-12-29T03:22:39.313Z,31.90
2018-12-29T03:23:39.218Z,31.60
2018-12-29T03:24:39.153Z,30.70
2018-12-29T03:25:39.133Z,31.90
2018-12-29T03:26:39.044Z,31.10
2018-12-29T03:27:39.001Z,31.70
2018-12-29T03:28:38.956Z,30.60
2018-12-29T03:29:38.872Z,31.50
2018-12-29T03:30:38.817Z,30.70
2018-12-29T03:31:38.764Z,31.00
2018-12-29T03:32:38.717Z,29.80
2018-12-29T03:33:38.673Z,30.60
2018-12-29T03:34:38.593Z,31.20
2018-12-29T03:35:38.542Z,30.30
2018-12-29T03:36:38.479Z,30.60
2018-12-29T03:37:38.447Z,30.30
2018-12-29T03:38:38.390Z,30.20
2018-12-29T03:39:38.336Z,29.70
2018-12-29T03:40:38.274Z,29.70
2018-12-29T03:41:38.200Z,29.80
2018-12-29T03:42:38.163Z,30.90
2018-12-29T03:43:38.189Z,30.60
2018-12-29T03:44:38.029Z,29.70
2018-12-29T03:45:37.976Z,30.70
2018-12-29T03:46:37.923Z,31.20
2018-12-29T03:47:37.871Z,30.30
2018-12-29T03:48:37.835Z,30.90
2018-12-29T03:49:37.763Z,31.20
2018-12-29T03:50:37.696Z,29.40
2018-12-29T03:51:37.642Z,29.80
2018-12-29T03:52:37.586Z,30.60
2018-12-29T03:53:44.748Z,30.50
2018-12-29T03:54:37.466Z,31.30
2018-12-29T03:55:37.415Z,30.80
2018-12-29T03:56:37.382Z,30.00
2018-12-29T03:57:37.300Z,30.90
2018-12-29T03:58:37.328Z,30.00
2018-12-29T03:59:37.188Z,30.80
2018-12-29T04:00:37.131Z,30.00
2018-12-29T04:01:37.073Z,28.70
2018-12-29T04:02:37.018Z,30.60
2018-12-29T04:03:36.988Z,30.70
2018-12-29T04:04:36.906Z,30.60
2018-12-29T04:05:36.848Z,29.20
2018-12-29T04:06:36.794Z,30.30
2018-12-29T04:07:36.738Z,29.30
2018-12-29T04:08:36.715Z,30.10
2018-12-29T04:09:36.627Z,29.40
2018-12-29T04:10:36.568Z,30.70
2018-12-29T04:11:36.515Z,29.60
2018-12-29T04:12:36.457Z,29.30
2018-12-29T04:13:36.440Z,29.70
2018-12-29T04:14:36.354Z,30.00
2018-12-29T04:15:36.293Z,30.40
2018-12-29T04:16:36.232Z,29.80
2018-12-29T04:17:36.176Z,30.80
2018-12-29T04:18:36.121Z,29.60
2018-12-29T04:19:36.091Z,30.90
2018-12-29T04:20:36.013Z,30.40
2018-12-29T04:21:35.951Z,28.80
2018-12-29T04:22:35.897Z,29.90
2018-12-29T04:23:35.839Z,29.10
2018-12-29T04:24:35.810Z,29.10
2018-12-29T04:25:35.739Z,29.10
2018-12-29T04:26:35.675Z,28.30
2018-12-29T04:27:35.621Z,29.30
2018-12-29T04:28:35.559Z,28.70
2018-12-29T04:29:35.527Z,28.60
2018-12-29T04:30:35.447Z,27.70
2018-12-29T04:31:35.393Z,28.40
2018-12-29T04:32:35.340Z,28.60
2018-12-29T04:33:35.281Z,28.00
2018-12-29T04:34:35.249Z,29.10
2018-12-29T04:35:35.167Z,29.30
2018-12-29T04:36:35.111Z,27.90
2018-12-29T04:37:35.059Z,28.70
2018-12-29T04:38:34.997Z,28.60
2018-12-29T04:39:34.968Z,28.50
2018-12-29T04:40:34.889Z,28.40
2018-12-29T04:41:34.836Z,28.30
2018-12-29T04:42:34.771Z,28.50
2018-12-29T04:43:34.719Z,28.10
2018-12-29T04:44:34.683Z,28.40
2018-12-29T04:45:34.611Z,28.50
2018-12-29T04:46:34.553Z,27.70
2018-12-29T04:47:34.497Z,28.00
2018-12-29T04:48:34.439Z,28.00
2018-12-29T04:49:34.407Z,29.20
2018-12-29T04:50:34.327Z,28.30
2018-12-29T04:51:34.272Z,27.50
2018-12-29T04:52:34.217Z,28.70
2018-12-29T04:53:34.158Z,27.40
2018-12-29T04:54:34.125Z,27.30
2018-12-29T04:55:34.050Z,27.70
2018-12-29T04:56:33.992Z,28.60
2018-12-29T04:57:33.936Z,27.40
2018-12-29T04:58:33.879Z,28.00
2018-12-29T04:59:33.845Z,29.20
2018-12-29T05:00:33.773Z,27.80
2018-12-29T05:01:33.714Z,29.40
2018-12-29T05:02:33.655Z,28.70
2018-12-29T05:03:33.599Z,29.20
2018-12-29T05:04:33.567Z,28.30
2018-12-29T05:05:33.489Z,28.80
2018-12-29T05:06:33.429Z,28.50
2018-12-29T05:07:33.378Z,28.90
2018-12-29T05:08:33.318Z,28.70
2018-12-29T05:09:33.287Z,28.40
2018-12-29T05:10:33.210Z,28.90
2018-12-29T05:11:33.151Z,28.60
2018-12-29T05:12:33.096Z,28.80
2018-12-29T05:13:33.041Z,28.50
2018-12-29T05:14:33.006Z,29.60
2018-12-29T05:15:32.927Z,29.10
2018-12-29T05:16:32.871Z,28.60
2018-12-29T05:17:32.820Z,30.20
2018-12-29T05:18:32.760Z,28.50
2018-12-29T05:19:32.728Z,28.90
2018-12-29T05:20:32.647Z,28.90
2018-12-29T05:21:32.593Z,28.10
2018-12-29T05:22:32.538Z,28.60
2018-12-29T05:23:32.483Z,28.80
2018-12-29T05:24:32.449Z,29.70
2018-12-29T05:25:32.372Z,28.00
2018-12-29T05:26:32.313Z,29.70
2018-12-29T05:27:32.257Z,29.30
2018-12-29T05:28:32.200Z,29.60
2018-12-29T05:29:32.170Z,29.50
2018-12-29T05:30:32.096Z,28.60
2018-12-29T05:31:32.043Z,29.00
2018-12-29T05:32:31.976Z,29.20
2018-12-29T05:33:31.922Z,27.80
2018-12-29T05:34:31.893Z,28.60
2018-12-29T05:35:31.837Z,30.10
2018-12-29T05:36:31.757Z,29.20
2018-12-29T05:37:31.698Z,29.70
2018-12-29T05:38:31.643Z,30.00
2018-12-29T05:39:31.588Z,29.90
2018-12-29T05:40:31.559Z,29.80
2018-12-29T05:41:31.480Z,29.30
2018-12-29T05:42:31.422Z,28.20
2018-12-29T05:43:31.363Z,28.40
2018-12-29T05:44:31.307Z,28.70
2018-12-29T05:45:31.278Z,29.90
2018-12-29T05:46:31.197Z,29.40
2018-12-29T05:47:31.142Z,28.40
2018-12-29T05:48:31.086Z,29.50
2018-12-29T05:49:31.030Z,29.60
2018-12-29T05:50:31.020Z,29.70
2018-12-29T05:51:30.915Z,30.50
2018-12-29T05:52:30.861Z,29.80
2018-12-29T05:53:30.807Z,30.50
2018-12-29T05:54:30.749Z,30.30
2018-12-29T05:55:30.717Z,29.10
2018-12-29T05:56:30.641Z,28.90
2018-12-29T05:57:30.580Z,29.90
2018-12-29T05:58:30.530Z,30.30
2018-12-29T05:59:30.473Z,29.40
2018-12-29T06:00:30.439Z,28.50
2018-12-29T06:01:30.358Z,31.50
2018-12-29T06:02:30.304Z,28.60
2018-12-29T06:03:30.248Z,29.70
2018-12-29T06:04:30.193Z,29.30
2018-12-29T06:05:30.160Z,28.20
2018-12-29T06:06:30.081Z,29.00
2018-12-29T06:07:30.026Z,29.90
2018-12-29T06:08:29.987Z,30.60
2018-12-29T06:09:29.910Z,29.00
2018-12-29T06:10:29.935Z,29.40
2018-12-29T06:11:29.799Z,28.60
2018-12-29T06:12:29.744Z,29.30
2018-12-29T06:13:29.688Z,29.80
2018-12-29T06:14:29.634Z,29.00
2018-12-29T06:15:29.602Z,29.70
2018-12-29T06:16:29.527Z,30.10
2018-12-29T06:17:29.465Z,30.10
2018-12-29T06:18:29.414Z,29.00
2018-12-29T06:19:29.356Z,29.90
2018-12-29T06:20:29.321Z,29.60
2018-12-29T06:21:29.241Z,28.10
2018-12-29T06:22:29.186Z,29.20
2018-12-29T06:23:29.130Z,28.40
2018-12-29T06:24:29.075Z,30.00
2018-12-29T06:25:29.044Z,28.80
2018-12-29T06:26:28.961Z,29.30
2018-12-29T06:27:28.909Z,28.40
2018-12-29T06:28:28.853Z,28.90
2018-12-29T06:29:28.798Z,27.70
2018-12-29T06:30:28.763Z,28.30
2018-12-29T06:31:28.684Z,27.10
2018-12-29T06:32:28.630Z,28.10
2018-12-29T06:33:28.572Z,28.50
2018-12-29T06:34:28.520Z,29.60
2018-12-29T06:35:28.487Z,29.90
2018-12-29T06:36:28.406Z,30.10
2018-12-29T06:37:28.353Z,29.10
2018-12-29T06:38:28.292Z,29.70
2018-12-29T06:39:28.239Z,29.70
2018-12-29T06:40:28.205Z,29.10
2018-12-29T06:41:28.129Z,29.50
2018-12-29T06:42:28.070Z,31.00
2018-12-29T06:43:28.015Z,30.70
2018-12-29T06:44:27.958Z,29.80
2018-12-29T06:45:27.923Z,30.10
2018-12-29T06:46:34.735Z,30.80
2018-12-29T06:47:27.789Z,29.70
2018-12-29T06:48:27.734Z,30.80
2018-12-29T06:49:27.678Z,30.20
2018-12-29T06:50:27.657Z,30.80
2018-12-29T06:51:27.567Z,30.30
2018-12-29T06:52:27.511Z,30.30
2018-12-29T06:53:27.456Z,30.60
2018-12-29T06:54:27.400Z,31.70
2018-12-29T06:55:27.345Z,32.70
2018-12-29T06:56:27.312Z,32.50
2018-12-29T06:57:27.230Z,31.90
2018-12-29T06:58:27.178Z,31.60
2018-12-29T06:59:27.120Z,32.00
2018-12-29T07:00:27.064Z,31.80
2018-12-29T07:01:27.033Z,31.00
2018-12-29T07:02:26.954Z,31.90
2018-12-29T07:03:26.898Z,31.50
2018-12-29T07:04:26.845Z,30.70
2018-12-29T07:05:26.787Z,31.40
2018-12-29T07:06:26.758Z,31.40
2018-12-29T07:07:26.674Z,31.50
2018-12-29T07:08:26.617Z,31.10
2018-12-29T07:09:26.562Z,30.20
2018-12-29T07:10:26.508Z,30.80
2018-12-29T07:11:26.475Z,30.90
2018-12-29T07:12:26.396Z,30.30
2018-12-29T07:13:26.337Z,31.40
2018-12-29T07:14:26.285Z,29.60
2018-12-29T07:15:26.229Z,31.70
2018-12-29T07:16:26.198Z,30.00
2018-12-29T07:17:26.114Z,30.80
2018-12-29T07:18:26.059Z,30.30
2018-12-29T07:19:26.003Z,29.50
2018-12-29T07:20:25.953Z,29.90
2018-12-29T07:21:25.921Z,31.60
2018-12-29T07:22:25.841Z,30.10
2018-12-29T07:23:25.779Z,30.50
2018-12-29T07:24:25.730Z,30.40
2018-12-29T07:25:25.670Z,31.40
2018-12-29T07:26:25.643Z,31.70
2018-12-29T07:27:25.560Z,30.30
2018-12-29T07:28:25.502Z,30.70
2018-12-29T07:29:25.446Z,29.70
2018-12-29T07:30:25.390Z,30.30
2018-12-29T07:31:25.372Z,30.30
2018-12-29T07:32:25.281Z,32.80
2018-12-29T07:33:25.224Z,30.20
2018-12-29T07:34:25.165Z,31.00
2018-12-29T07:35:25.117Z,30.80
2018-12-29T07:36:25.079Z,30.40
2018-12-29T07:37:25.006Z,31.10
2018-12-29T07:38:24.941Z,30.60
2018-12-29T07:39:24.887Z,30.70
2018-12-29T07:40:24.833Z,30.40
2018-12-29T07:41:24.801Z,30.50
2018-12-29T07:42:24.723Z,29.60
2018-12-29T07:43:24.670Z,32.20
2018-12-29T07:44:24.611Z,31.50
2018-12-29T07:45:24.557Z,32.60
2018-12-29T07:46:24.520Z,31.00
2018-12-29T07:47:24.440Z,32.10
2018-12-29T07:48:24.389Z,32.00
2018-12-29T07:49:24.334Z,32.10
2018-12-29T07:50:24.278Z,32.10
2018-12-29T07:51:24.243Z,31.00
2018-12-29T07:52:24.159Z,31.30
2018-12-29T07:53:24.108Z,32.70
2018-12-29T07:54:24.055Z,31.50
2018-12-29T07:55:24.001Z,30.50
2018-12-29T07:56:23.968Z,31.00
2018-12-29T07:57:23.886Z,32.20
2018-12-29T07:58:23.832Z,31.10
2018-12-29T07:59:23.775Z,28.80
2018-12-29T08:00:23.720Z,31.80
2018-12-29T08:01:23.684Z,30.80
2018-12-29T08:02:23.610Z,33.40
2018-12-29T08:03:23.555Z,31.10
2018-12-29T08:04:23.486Z,32.10
2018-12-29T08:05:23.443Z,31.30
2018-12-29T08:06:23.420Z,32.10
2018-12-29T08:07:23.330Z,30.90
2018-12-29T08:08:23.276Z,30.90
2018-12-29T08:09:23.216Z,31.70
2018-12-29T08:10:23.164Z,31.40
2018-12-29T08:11:23.110Z,31.10
2018-12-29T08:12:23.070Z,31.60
2018-12-29T08:13:22.999Z,30.60
2018-12-29T08:14:22.942Z,32.90
2018-12-29T08:15:22.880Z,31.50
2018-12-29T08:16:22.833Z,31.20
2018-12-29T08:17:22.799Z,31.10
2018-12-29T08:18:22.718Z,29.70
2018-12-29T08:19:22.661Z,31.20
2018-12-29T08:20:22.607Z,30.30
2018-12-29T08:21:22.552Z,31.00
2018-12-29T08:22:24.078Z,31.10
2018-12-29T08:23:22.433Z,32.40
2018-12-29T08:24:22.386Z,31.00
2018-12-29T08:25:22.328Z,31.00
2018-12-29T08:26:22.274Z,31.00
2018-12-29T08:27:22.305Z,30.40
2018-12-29T08:28:22.165Z,30.50
2018-12-29T08:29:22.106Z,32.50
2018-12-29T08:30:22.052Z,31.10
2018-12-29T08:31:21.994Z,31.80
2018-12-29T08:32:21.963Z,30.90
2018-12-29T08:33:21.883Z,30.60
2018-12-29T08:34:21.829Z,31.50
2018-12-29T08:35:21.774Z,30.50
2018-12-29T08:36:21.718Z,31.40
2018-12-29T08:37:21.684Z,31.50
2018-12-29T08:38:21.608Z,32.00
2018-12-29T08:39:21.547Z,31.90
2018-12-29T08:40:21.495Z,31.00
2018-12-29T08:41:21.439Z,31.00
2018-12-29T08:42:21.404Z,30.00
2018-12-29T08:43:21.341Z,31.50
2018-12-29T08:44:21.277Z,31.90
2018-12-29T08:45:21.216Z,31.60
2018-12-29T08:46:21.164Z,30.20
2018-12-29T08:47:21.132Z,32.10
2018-12-29T08:48:21.052Z,31.00
2018-12-29T08:49:21.002Z,30.20
2018-12-29T08:50:20.938Z,30.90
2018-12-29T08:51:20.885Z,30.70
2018-12-29T08:52:20.854Z,30.80
2018-12-29T08:53:20.777Z,30.90
2018-12-29T08:54:20.724Z,32.30
2018-12-29T08:55:20.665Z,32.10
2018-12-29T08:56:20.612Z,32.10
2018-12-29T08:57:20.573Z,31.00
2018-12-29T08:58:20.508Z,33.00
2018-12-29T08:59:20.443Z,33.00
2018-12-29T09:00:20.392Z,32.10
2018-12-29T09:01:20.328Z,32.90
2018-12-29T09:02:20.304Z,31.80
2018-12-29T09:03:20.223Z,32.10
2018-12-29T09:04:20.165Z,33.00
2018-12-29T09:05:20.114Z,34.00
2018-12-29T09:06:20.057Z,35.10
2018-12-29T09:07:20.025Z,32.70
2018-12-29T09:08:20.031Z,33.80
2018-12-29T09:09:19.894Z,31.70
2018-12-29T09:10:19.831Z,33.10
2018-12-29T09:11:19.781Z,31.80
2018-12-29T09:12:19.751Z,34.50
2018-12-29T09:13:19.672Z,33.50
2018-12-29T09:14:19.610Z,30.90
2018-12-29T09:15:19.557Z,33.40
2018-12-29T09:16:19.501Z,33.50
2018-12-29T09:17:19.470Z,32.50
2018-12-29T09:18:19.394Z,32.80
2018-12-29T09:19:19.333Z,32.50
2018-12-29T09:20:19.296Z,33.50
2018-12-29T09:21:19.231Z,33.10
2018-12-29T09:22:19.214Z,32.60
2018-12-29T09:23:19.113Z,33.80
2018-12-29T09:24:19.060Z,32.70
2018-12-29T09:25:18.997Z,32.60
2018-12-29T09:26:18.948Z,34.50
2018-12-29T09:27:18.918Z,31.20
2018-12-29T09:28:18.832Z,34.10
2018-12-29T09:29:18.780Z,34.70
2018-12-29T09:30:18.725Z,34.50
2018-12-29T09:31:18.671Z,34.20
2018-12-29T09:32:18.639Z,37.30
2018-12-29T09:33:18.559Z,33.70
2018-12-29T09:34:22.449Z,34.40
2018-12-29T09:35:18.449Z,34.50
2018-12-29T09:36:18.393Z,32.80
2018-12-29T09:37:18.366Z,32.00
2018-12-29T09:38:18.288Z,32.60
2018-12-29T09:39:18.228Z,32.90
2018-12-29T09:40:18.174Z,32.50
2018-12-29T09:41:18.119Z,33.20
2018-12-29T09:42:18.086Z,35.90
2018-12-29T09:43:18.006Z,36.90
2018-12-29T09:44:17.957Z,36.60
2018-12-29T09:45:17.901Z,34.00
2018-12-29T09:46:17.847Z,33.70
2018-12-29T09:47:19.783Z,34.40
2018-12-29T09:48:17.730Z,34.20
2018-12-29T09:49:17.678Z,35.40
2018-12-29T09:50:17.624Z,35.00
2018-12-29T09:51:17.566Z,33.70
2018-12-29T09:52:17.511Z,34.80
2018-12-29T09:53:17.480Z,34.80
2018-12-29T09:54:17.399Z,33.80
2018-12-29T09:55:17.346Z,36.20
2018-12-29T09:56:17.291Z,35.10
2018-12-29T09:57:17.233Z,34.60
2018-12-29T09:58:17.204Z,36.10
2018-12-29T09:59:17.126Z,35.00
2018-12-29T10:00:17.065Z,34.10
2018-12-29T10:01:17.013Z,34.40
2018-12-29T10:02:16.956Z,35.60
2018-12-29T10:03:16.929Z,35.50
2018-12-29T10:04:16.849Z,32.80
2018-12-29T10:05:16.793Z,35.10
2018-12-29T10:06:16.740Z,34.40
2018-12-29T10:07:16.680Z,37.70
2018-12-29T10:08:16.647Z,34.90
2018-12-29T10:09:16.577Z,35.40
2018-12-29T10:10:16.519Z,37.00
2018-12-29T10:11:16.461Z,35.80
2018-12-29T10:12:16.411Z,34.70
2018-12-29T10:13:16.374Z,35.60
2018-12-29T10:14:16.296Z,34.60
2018-12-29T10:15:16.243Z,36.80
2018-12-29T10:16:16.185Z,34.50
2018-12-29T10:17:16.125Z,35.10
2018-12-29T10:18:16.100Z,36.30
2018-12-29T10:19:16.020Z,36.10
2018-12-29T10:20:15.963Z,37.80
2018-12-29T10:21:15.902Z,38.10
2018-12-29T10:22:15.855Z,36.90
2018-12-29T10:24:47.393Z,35.80
2018-12-29T10:25:47.301Z,38.30
2018-12-29T10:26:47.252Z,38.10
2018-12-29T10:27:47.188Z,39.40
2018-12-29T10:28:47.161Z,38.30
2018-12-29T10:29:47.084Z,38.40
2018-12-29T10:30:47.029Z,37.10
2018-12-29T10:31:46.982Z,36.10
2018-12-29T10:32:46.980Z,37.60
2018-12-29T10:33:46.982Z,36.90
2018-12-29T10:34:46.819Z,37.40
2018-12-29T10:35:46.758Z,37.30
2018-12-29T10:36:46.715Z,36.10
2018-12-29T10:37:46.643Z,38.60
2018-12-29T10:38:46.649Z,37.00
2018-12-29T10:39:46.539Z,39.70
2018-12-29T10:40:46.479Z,37.30
2018-12-29T10:41:46.425Z,39.10
2018-12-29T10:42:46.508Z,37.80
2018-12-29T10:43:46.343Z,35.70
2018-12-29T10:44:46.283Z,38.80
2018-12-29T10:45:46.211Z,36.80
2018-12-29T10:46:46.153Z,37.70
2018-12-29T10:47:46.102Z,36.70
2018-12-29T10:48:46.072Z,37.10
2018-12-29T10:49:45.992Z,37.60
2018-12-29T10:50:45.942Z,37.50
2018-12-29T10:51:45.919Z,35.90
2018-12-29T10:52:45.820Z,37.60
2018-12-29T10:53:45.796Z,35.40
2018-12-29T10:54:45.694Z,35.20
2018-12-29T10:55:45.705Z,36.60
2018-12-29T10:56:45.615Z,36.50
2018-12-29T10:57:45.583Z,35.40
2018-12-29T10:58:45.583Z,35.60
2018-12-29T10:59:45.431Z,36.00
2018-12-29T11:00:45.402Z,36.10
2018-12-29T11:01:45.326Z,36.40
2018-12-29T11:02:45.511Z,37.30
2018-12-29T11:03:45.259Z,34.90
2018-12-29T11:04:45.157Z,35.40
2018-12-29T11:05:45.107Z,35.60
2018-12-29T11:06:45.066Z,35.20
2018-12-29T11:07:44.995Z,35.70
2018-12-29T11:08:44.992Z,38.10
2018-12-29T11:09:44.888Z,35.30
2018-12-29T11:10:44.845Z,36.00
2018-12-29T11:11:44.769Z,35.00
2018-12-29T11:12:44.729Z,37.80
2018-12-29T11:13:44.677Z,36.40
2018-12-29T11:14:44.610Z,37.20
2018-12-29T11:15:44.774Z,38.30
2018-12-29T11:16:44.601Z,38.00
2018-12-29T11:17:44.452Z,37.80
2018-12-29T11:18:44.772Z,38.10
2018-12-29T11:19:44.366Z,37.00
2018-12-29T11:20:44.295Z,37.70
2018-12-29T11:21:44.286Z,37.50
2018-12-29T11:22:44.312Z,35.10
2018-12-29T11:23:44.150Z,37.30
2018-12-29T11:24:44.081Z,38.00
2018-12-29T11:25:44.091Z,38.30
2018-12-29T11:26:43.953Z,35.90
2018-12-29T11:27:43.911Z,35.60
2018-12-29T11:28:43.860Z,36.80
2018-12-29T11:29:43.820Z,37.80
2018-12-29T11:30:43.738Z,34.80
2018-12-29T11:31:43.671Z,37.60
2018-12-29T11:32:43.637Z,37.40
2018-12-29T11:33:43.604Z,37.10
2018-12-29T11:34:43.559Z,35.90
2018-12-29T11:35:43.472Z,35.00
2018-12-29T11:36:43.450Z,36.50
2018-12-29T11:37:44.134Z,36.50
2018-12-29T11:38:43.428Z,35.80
2018-12-29T11:39:43.580Z,35.80
2018-12-29T11:40:43.269Z,36.00
2018-12-29T11:41:43.207Z,36.10
2018-12-29T11:42:43.111Z,36.70
2018-12-29T11:43:43.060Z,35.70
2018-12-29T11:44:43.037Z,37.40
2018-12-29T11:45:42.903Z,37.50
2018-12-29T11:46:42.908Z,35.70
2018-12-29T11:47:49.569Z,36.30
2018-12-29T11:48:42.813Z,36.90
2018-12-29T11:49:42.702Z,36.40
2018-12-29T11:50:42.634Z,36.80
2018-12-29T11:51:42.576Z,36.40
2018-12-29T11:52:42.531Z,36.60
2018-12-29T11:53:42.477Z,36.90
2018-12-29T11:54:42.553Z,36.90
2018-12-29T11:55:42.381Z,36.90
2018-12-29T11:56:42.307Z,37.60
2018-12-29T11:57:42.269Z,37.10
2018-12-29T11:58:42.253Z,36.60
2018-12-29T11:59:42.184Z,37.30
2018-12-29T12:00:42.129Z,37.70
2018-12-29T12:01:42.039Z,37.60
2018-12-29T12:02:42.001Z,37.70
2018-12-29T12:03:41.921Z,37.40
2018-12-29T12:04:41.938Z,37.80
2018-12-29T12:05:41.869Z,37.10
2018-12-29T12:06:41.816Z,36.20
2018-12-29T12:07:41.733Z,36.20
2018-12-29T12:08:41.655Z,38.00
2018-12-29T12:09:41.625Z,36.90
2018-12-29T12:10:41.581Z,35.20
2018-12-29T12:11:41.480Z,37.10
2018-12-29T12:12:41.448Z,36.30
2018-12-29T12:13:41.421Z,37.10
2018-12-29T12:14:41.375Z,37.50
2018-12-29T12:15:41.251Z,36.50
2018-12-29T12:16:41.231Z,36.30
2018-12-29T12:17:41.205Z,36.70
2018-12-29T12:18:41.093Z,36.60
2018-12-29T12:19:41.102Z,36.60
2018-12-29T12:20:41.002Z,36.50
2018-12-29T12:21:40.946Z,37.60
2018-12-29T12:22:40.890Z,36.80
2018-12-29T12:23:40.834Z,35.80
2018-12-29T12:24:40.789Z,37.60
2018-12-29T12:25:40.740Z,35.70
2018-12-29T12:26:40.684Z,35.80
2018-12-29T12:27:40.642Z,35.40
2018-12-29T12:28:40.569Z,35.60
2018-12-29T12:29:40.648Z,36.40
2018-12-29T12:30:40.495Z,35.40
2018-12-29T12:31:40.388Z,36.10
2018-12-29T12:32:40.333Z,37.70
2018-12-29T12:33:40.273Z,35.60
2018-12-29T12:34:40.258Z,36.20
2018-12-29T12:35:40.191Z,35.70
2018-12-29T12:36:40.126Z,35.80
2018-12-29T12:37:40.111Z,35.20
2018-12-29T12:38:40.006Z,34.40
2018-12-29T12:39:39.981Z,34.70
2018-12-29T12:40:39.908Z,33.70
2018-12-29T12:41:39.848Z,34.20
2018-12-29T12:42:39.797Z,31.70
2018-12-29T12:43:39.721Z,32.50
2018-12-29T12:44:39.721Z,33.90
2018-12-29T12:45:39.679Z,34.10
2018-12-29T12:46:39.584Z,33.60
2018-12-29T12:47:39.509Z,33.10
2018-12-29T12:48:41.124Z,33.80
2018-12-29T12:49:39.400Z,33.30
2018-12-29T12:50:39.385Z,33.60
2018-12-29T12:51:39.301Z,30.20
2018-12-29T12:52:39.274Z,31.70
2018-12-29T12:53:39.258Z,31.00